createdAt,value
2022-08-28T00:00:03.735Z,19.75
2022-08-28T00:01:03.720Z,19.75
2022-08-28T00:02:03.718Z,19.76
2022-08-28T00:03:03.767Z,19.75
2022-08-28T00:04:03.679Z,19.73
2022-08-28T00:05:03.882Z,19.76
2022-08-28T00:06:03.657Z,19.73
2022-08-28T00:07:03.638Z,19.75
2022-08-28T00:08:03.667Z,19.70
2022-08-28T00:09:03.609Z,19.72
2022-08-28T00:10:03.595Z,19.72
2022-08-28T00:11:03.578Z,19.72
2022-08-28T00:12:03.570Z,19.72
2022-08-28T00:13:03.566Z,19.70
2022-08-28T00:14:03.558Z,19.70
2022-08-28T00:15:03.529Z,19.70
2022-08-28T00:16:03.563Z,19.69
2022-08-28T00:17:03.508Z,19.70
2022-08-28T00:18:03.491Z,19.72
2022-08-28T00:19:03.510Z,19.69
2022-08-28T00:20:03.470Z,19.68
2022-08-28T00:21:03.450Z,19.70
2022-08-28T00:22:03.441Z,19.69
2022-08-28T00:23:03.431Z,19.68
2022-08-28T00:24:03.438Z,19.68
2022-08-28T00:25:03.419Z,19.66
2022-08-28T00:26:03.391Z,19.65
2022-08-28T00:27:03.379Z,19.65
2022-08-28T00:28:10.453Z,19.65
2022-08-28T00:29:04.379Z,19.61
2022-08-28T00:30:03.340Z,19.61
2022-08-28T00:31:03.364Z,19.60
2022-08-28T00:32:03.314Z,19.57
2022-08-28T00:33:03.292Z,19.57
2022-08-28T00:34:03.323Z,19.58
2022-08-28T00:35:03.292Z,19.55
2022-08-28T00:36:03.262Z,19.58
2022-08-28T00:37:03.242Z,19.57
2022-08-28T00:38:03.240Z,19.57
2022-08-28T00:39:03.221Z,19.57
2022-08-28T00:40:03.243Z,19.57
2022-08-28T00:41:03.970Z,19.57
2022-08-28T00:42:03.191Z,19.55
2022-08-28T00:43:03.173Z,19.55
2022-08-28T00:44:03.164Z,19.55
2022-08-28T00:45:03.174Z,19.54
2022-08-28T00:46:03.209Z,19.55
2022-08-28T00:47:03.124Z,19.54
2022-08-28T00:48:03.120Z,19.54
2022-08-28T00:49:03.090Z,19.54
2022-08-28T00:50:03.082Z,19.54
2022-08-28T00:51:03.076Z,19.51
2022-08-28T00:52:03.051Z,19.51
2022-08-28T00:53:03.073Z,19.51
2022-08-28T00:54:07.324Z,19.50
2022-08-28T00:55:03.005Z,19.50
2022-08-28T00:56:04.104Z,19.47
2022-08-28T00:57:03.004Z,19.47
2022-08-28T00:58:02.986Z,19.47
2022-08-28T00:59:02.973Z,19.40
2022-08-28T01:00:02.956Z,19.38
2022-08-28T01:01:02.945Z,19.35
2022-08-28T01:02:03.014Z,19.31
2022-08-28T01:03:02.983Z,19.32
2022-08-28T01:04:02.904Z,19.31
2022-08-28T01:05:02.884Z,19.29
2022-08-28T01:06:02.873Z,19.29
2022-08-28T01:07:02.856Z,19.24
2022-08-28T01:08:02.842Z,19.21
2022-08-28T01:09:02.845Z,19.23
2022-08-28T01:10:02.844Z,19.20
2022-08-28T01:11:02.829Z,19.18
2022-08-28T01:12:02.797Z,19.17
2022-08-28T01:13:02.791Z,19.17
2022-08-28T01:14:03.180Z,19.18
2022-08-28T01:15:02.757Z,19.15
2022-08-28T01:16:02.842Z,19.14
2022-08-28T01:17:02.734Z,19.13
2022-08-28T01:18:07.852Z,19.13
2022-08-28T01:19:03.702Z,19.10
2022-08-28T01:20:02.695Z,19.10
2022-08-28T01:21:02.677Z,19.08
2022-08-28T01:22:02.695Z,19.05
2022-08-28T01:23:02.647Z,19.02
2022-08-28T01:24:02.647Z,19.02
2022-08-28T01:25:02.638Z,18.99
2022-08-28T01:26:02.618Z,18.99
2022-08-28T01:27:03.616Z,18.99
2022-08-28T01:28:02.610Z,18.99
2022-08-28T01:29:02.579Z,19.01
2022-08-28T01:30:02.580Z,18.98
2022-08-28T01:31:02.604Z,18.94
2022-08-28T01:32:02.550Z,18.91
2022-08-28T01:33:02.548Z,18.87
2022-08-28T01:34:02.518Z,18.84
2022-08-28T01:35:02.500Z,18.84
2022-08-28T01:36:02.495Z,18.82
2022-08-28T01:37:03.382Z,18.80
2022-08-28T01:38:02.469Z,18.77
2022-08-28T01:39:02.468Z,18.77
2022-08-28T01:40:02.488Z,18.73
2022-08-28T01:41:02.419Z,18.70
2022-08-28T01:42:02.422Z,18.68
2022-08-28T01:43:02.401Z,18.65
2022-08-28T01:44:02.412Z,18.64
2022-08-28T01:45:02.372Z,18.62
2022-08-28T01:46:02.504Z,18.59
2022-08-28T01:47:02.401Z,18.59
2022-08-28T01:48:02.341Z,18.58
2022-08-28T01:49:02.370Z,18.57
2022-08-28T01:50:02.340Z,18.52
2022-08-28T01:51:02.292Z,18.52
2022-08-28T01:52:03.330Z,18.52
2022-08-28T01:53:02.272Z,18.49
2022-08-28T01:54:02.272Z,18.47
2022-08-28T01:55:02.244Z,18.49
2022-08-28T01:56:02.378Z,18.46
2022-08-28T01:57:02.224Z,18.46
2022-08-28T01:58:02.206Z,18.44
2022-08-28T01:59:02.197Z,18.44
2022-08-28T02:00:02.192Z,18.40
2022-08-28T02:01:02.172Z,18.39
2022-08-28T02:02:02.163Z,18.39
2022-08-28T02:03:02.133Z,18.36
2022-08-28T02:04:02.203Z,18.34
2022-08-28T02:05:02.109Z,18.33
2022-08-28T02:06:02.151Z,18.31
2022-08-28T02:07:02.081Z,18.29
2022-08-28T02:08:02.074Z,18.29
2022-08-28T02:09:02.066Z,18.29
2022-08-28T02:10:02.034Z,18.28
2022-08-28T02:11:02.027Z,18.25
2022-08-28T02:12:02.024Z,18.25
2022-08-28T02:13:02.016Z,18.22
2022-08-28T02:14:01.995Z,18.25
2022-08-28T02:15:01.976Z,18.22
2022-08-28T02:16:02.100Z,18.21
2022-08-28T02:17:01.953Z,18.21
2022-08-28T02:18:01.935Z,18.22
2022-08-28T02:19:01.975Z,18.18
2022-08-28T02:20:01.906Z,18.17
2022-08-28T02:21:01.895Z,18.15
2022-08-28T02:22:01.886Z,18.15
2022-08-28T02:23:01.864Z,18.13
2022-08-28T02:24:01.867Z,18.13
2022-08-28T02:25:01.867Z,18.12
2022-08-28T02:26:01.836Z,18.12
2022-08-28T02:27:01.827Z,18.12
2022-08-28T02:28:01.806Z,18.12
2022-08-28T02:29:01.797Z,18.09
2022-08-28T02:30:01.777Z,18.09
2022-08-28T02:31:01.831Z,18.09
2022-08-28T02:32:01.745Z,18.07
2022-08-28T02:33:01.734Z,18.07
2022-08-28T02:34:01.756Z,18.07
2022-08-28T02:35:01.705Z,18.09
2022-08-28T02:36:01.707Z,18.07
2022-08-28T02:37:01.676Z,18.09
2022-08-28T02:38:01.656Z,18.07
2022-08-28T02:39:01.657Z,18.06
2022-08-28T02:40:01.712Z,18.07
2022-08-28T02:41:01.638Z,18.06
2022-08-28T02:42:01.638Z,18.06
2022-08-28T02:43:01.610Z,18.07
2022-08-28T02:44:01.602Z,18.07
2022-08-28T02:45:01.587Z,18.09
2022-08-28T02:46:01.614Z,18.09
2022-08-28T02:47:01.559Z,18.07
2022-08-28T02:48:01.558Z,18.07
2022-08-28T02:49:01.518Z,18.09
2022-08-28T02:50:01.508Z,18.07
2022-08-28T02:51:01.489Z,18.09
2022-08-28T02:52:01.519Z,18.10
2022-08-28T02:53:01.480Z,18.10
2022-08-28T02:54:01.470Z,18.10
2022-08-28T02:55:01.440Z,18.10
2022-08-28T02:56:01.430Z,18.12
2022-08-28T02:57:01.419Z,18.12
2022-08-28T02:58:01.418Z,18.12
2022-08-28T02:59:01.389Z,18.12
2022-08-28T03:00:01.386Z,18.12
2022-08-28T03:01:01.401Z,18.13
2022-08-28T03:02:01.390Z,18.15
2022-08-28T03:03:01.386Z,18.17
2022-08-28T03:04:01.323Z,18.15
2022-08-28T03:05:01.311Z,18.15
2022-08-28T03:06:01.326Z,18.15
2022-08-28T03:07:01.289Z,18.18
2022-08-28T03:08:01.273Z,18.17
2022-08-28T03:09:01.310Z,18.18
2022-08-28T03:10:01.263Z,18.18
2022-08-28T03:11:01.283Z,18.19
2022-08-28T03:12:01.237Z,18.21
2022-08-28T03:13:01.211Z,18.22
2022-08-28T03:14:01.190Z,18.21
2022-08-28T03:15:01.180Z,18.21
2022-08-28T03:16:01.184Z,18.22
2022-08-28T03:17:01.193Z,18.22
2022-08-28T03:18:01.144Z,18.24
2022-08-28T03:19:01.151Z,18.25
2022-08-28T03:20:01.115Z,18.22
2022-08-28T03:21:01.103Z,18.24
2022-08-28T03:22:01.133Z,18.24
2022-08-28T03:23:01.082Z,18.22
2022-08-28T03:24:01.071Z,18.24
2022-08-28T03:25:01.053Z,18.24
2022-08-28T03:26:01.063Z,18.24
2022-08-28T03:27:01.074Z,18.22
2022-08-28T03:28:01.035Z,18.25
2022-08-28T03:29:01.049Z,18.25
2022-08-28T03:30:00.973Z,18.25
2022-08-28T03:31:01.041Z,18.27
2022-08-28T03:32:00.943Z,18.25
2022-08-28T03:33:00.932Z,18.25
2022-08-28T03:34:00.943Z,18.25
2022-08-28T03:35:00.931Z,18.24
2022-08-28T03:36:00.896Z,18.25
2022-08-28T03:37:00.926Z,18.27
2022-08-28T03:38:00.875Z,18.25
2022-08-28T03:39:00.879Z,18.24
2022-08-28T03:40:00.899Z,18.24
2022-08-28T03:41:00.840Z,18.25
2022-08-28T03:42:00.826Z,18.24
2022-08-28T03:43:06.847Z,18.24
2022-08-28T03:44:00.785Z,18.24
2022-08-28T03:45:00.819Z,18.24
2022-08-28T03:46:00.812Z,18.24
2022-08-28T03:47:00.796Z,18.25
2022-08-28T03:48:00.743Z,18.25
2022-08-28T03:49:00.725Z,18.22
2022-08-28T03:50:00.705Z,18.27
2022-08-28T03:51:00.713Z,18.22
2022-08-28T03:52:00.689Z,18.22
2022-08-28T03:53:00.687Z,18.22
2022-08-28T03:54:00.665Z,18.22
2022-08-28T03:55:00.648Z,18.21
2022-08-28T03:56:00.625Z,18.19
2022-08-28T03:57:00.627Z,18.19
2022-08-28T03:58:00.596Z,18.18
2022-08-28T03:59:00.586Z,18.17
2022-08-28T04:00:00.588Z,18.18
2022-08-28T04:01:00.602Z,18.19
2022-08-28T04:02:00.557Z,18.17
2022-08-28T04:03:00.609Z,18.15
2022-08-28T04:04:00.530Z,18.17
2022-08-28T04:05:00.530Z,18.18
2022-08-28T04:06:00.499Z,18.15
2022-08-28T04:07:00.490Z,18.18
2022-08-28T04:08:00.478Z,18.13
2022-08-28T04:09:00.589Z,18.12
2022-08-28T04:10:00.438Z,18.12
2022-08-28T04:11:00.427Z,18.12
2022-08-28T04:12:00.411Z,18.09
2022-08-28T04:13:00.397Z,18.09
2022-08-28T04:14:00.399Z,18.09
2022-08-28T04:15:00.379Z,18.07
2022-08-28T04:16:00.381Z,18.07
2022-08-28T04:17:01.655Z,18.06
2022-08-28T04:18:00.339Z,18.04
2022-08-28T04:19:00.360Z,18.03
2022-08-28T04:20:00.320Z,18.03
2022-08-28T04:21:00.298Z,18.03
2022-08-28T04:22:00.302Z,18.03
2022-08-28T04:23:00.467Z,18.03
2022-08-28T04:24:00.315Z,18.02
2022-08-28T04:25:00.285Z,18.04
2022-08-28T04:26:00.238Z,18.04
2022-08-28T04:27:00.209Z,18.03
2022-08-28T04:28:00.200Z,18.02
2022-08-28T04:29:00.191Z,18.02
2022-08-28T04:30:00.207Z,18.00
2022-08-28T04:31:00.163Z,18.00
2022-08-28T04:32:00.216Z,17.95
2022-08-28T04:33:00.142Z,17.95
2022-08-28T04:34:00.193Z,17.94
2022-08-28T04:35:00.135Z,17.91
2022-08-28T04:36:00.097Z,17.92
2022-08-28T04:37:00.087Z,17.89
2022-08-28T04:38:00.071Z,17.89
2022-08-28T04:39:00.137Z,17.87
2022-08-28T04:40:00.138Z,17.87
2022-08-28T04:41:00.031Z,17.85
2022-08-28T04:42:00.011Z,17.84
2022-08-28T04:43:00.057Z,17.82
2022-08-28T04:44:00.001Z,17.82
2022-08-28T04:44:59.980Z,17.81
2022-08-28T04:45:59.982Z,17.78
2022-08-28T04:46:59.961Z,17.76
2022-08-28T04:48:05.580Z,17.79
2022-08-28T04:49:00.937Z,17.78
2022-08-28T04:49:59.917Z,17.78
2022-08-28T04:50:59.905Z,17.78
2022-08-28T04:51:59.892Z,17.76
2022-08-28T04:52:59.886Z,17.74
2022-08-28T04:53:59.855Z,17.74
2022-08-28T04:54:59.877Z,17.78
2022-08-28T04:55:59.833Z,17.78
2022-08-28T04:56:59.822Z,17.79
2022-08-28T04:57:59.803Z,17.76
2022-08-28T04:58:59.813Z,17.79
2022-08-28T04:59:59.795Z,17.79
2022-08-28T05:00:59.834Z,17.78
2022-08-28T05:01:59.795Z,17.79
2022-08-28T05:02:59.756Z,17.81
2022-08-28T05:03:59.723Z,17.79
2022-08-28T05:04:59.715Z,17.81
2022-08-28T05:05:59.714Z,17.81
2022-08-28T05:06:59.694Z,17.84
2022-08-28T05:07:59.694Z,17.87
2022-08-28T05:08:59.693Z,17.89
2022-08-28T05:09:59.649Z,17.87
2022-08-28T05:10:59.643Z,17.85
2022-08-28T05:11:59.656Z,17.87
2022-08-28T05:12:59.635Z,17.88
2022-08-28T05:13:59.607Z,17.87
2022-08-28T05:14:59.597Z,17.88
2022-08-28T05:15:59.619Z,17.88
2022-08-28T05:16:59.586Z,17.88
2022-08-28T05:17:59.628Z,17.91
2022-08-28T05:18:59.548Z,17.94
2022-08-28T05:19:59.525Z,17.89
2022-08-28T05:20:59.517Z,17.91
2022-08-28T05:21:59.487Z,17.92
2022-08-28T05:22:59.507Z,17.91
2022-08-28T05:23:59.468Z,17.88
2022-08-28T05:24:59.456Z,17.91
2022-08-28T05:25:59.440Z,17.88
2022-08-28T05:26:59.427Z,17.91
2022-08-28T05:27:59.521Z,17.91
2022-08-28T05:28:59.490Z,17.89
2022-08-28T05:30:01.986Z,17.92
2022-08-28T05:30:59.439Z,17.92
2022-08-28T05:31:59.411Z,17.94
2022-08-28T05:32:59.360Z,17.92
2022-08-28T05:33:59.345Z,17.92
2022-08-28T05:35:08.600Z,17.91
2022-08-28T05:35:59.315Z,17.94
2022-08-28T05:36:59.305Z,17.97
2022-08-28T05:37:59.284Z,17.95
2022-08-28T05:38:59.273Z,17.99
2022-08-28T05:39:59.300Z,17.99
2022-08-28T05:40:59.276Z,18.00
2022-08-28T05:41:59.236Z,18.00
2022-08-28T05:42:59.245Z,18.03
2022-08-28T05:43:59.208Z,18.03
2022-08-28T05:44:59.255Z,18.04
2022-08-28T05:45:59.223Z,18.04
2022-08-28T05:46:59.185Z,18.04
2022-08-28T05:47:59.156Z,18.06
2022-08-28T05:48:59.147Z,18.06
2022-08-28T05:49:59.126Z,18.10
2022-08-28T05:50:59.107Z,18.10
2022-08-28T05:51:59.118Z,18.15
2022-08-28T05:52:59.086Z,18.17
2022-08-28T05:53:59.076Z,18.13
2022-08-28T05:54:59.065Z,18.10
2022-08-28T05:55:59.048Z,18.13
2022-08-28T05:56:59.037Z,18.06
2022-08-28T05:57:59.039Z,18.06
2022-08-28T05:58:59.009Z,18.06
2022-08-28T05:59:58.997Z,18.02
2022-08-28T06:00:58.994Z,17.99
2022-08-28T06:02:03.654Z,18.02
2022-08-28T06:02:59.969Z,18.03
2022-08-28T06:03:59.001Z,18.03
2022-08-28T06:04:58.941Z,18.06
2022-08-28T06:05:58.908Z,18.07
2022-08-28T06:06:58.895Z,18.10
2022-08-28T06:07:58.907Z,18.06
2022-08-28T06:08:59.296Z,18.12
2022-08-28T06:09:58.857Z,18.17
2022-08-28T06:10:58.851Z,18.19
2022-08-28T06:11:58.842Z,18.19
2022-08-28T06:12:58.889Z,18.17
2022-08-28T06:13:58.831Z,18.15
2022-08-28T06:14:58.810Z,18.21
2022-08-28T06:15:58.888Z,18.18
2022-08-28T06:16:58.780Z,18.22
2022-08-28T06:17:58.771Z,18.24
2022-08-28T06:18:58.772Z,18.17
2022-08-28T06:19:58.741Z,18.09
2022-08-28T06:20:58.732Z,18.09
2022-08-28T06:21:58.721Z,18.12
2022-08-28T06:22:58.690Z,18.18
2022-08-28T06:23:58.679Z,18.15
2022-08-28T06:24:58.670Z,18.12
2022-08-28T06:25:58.670Z,18.04
2022-08-28T06:26:58.863Z,17.99
2022-08-28T06:27:58.643Z,18.00
2022-08-28T06:28:58.621Z,17.99
2022-08-28T06:29:58.653Z,17.92
2022-08-28T06:31:18.397Z,17.97
2022-08-28T06:31:59.676Z,17.95
2022-08-28T06:32:58.573Z,17.89
2022-08-28T06:33:58.561Z,17.89
2022-08-28T06:34:58.553Z,17.88
2022-08-28T06:35:58.533Z,17.94
2022-08-28T06:36:58.514Z,17.95
2022-08-28T06:37:58.524Z,17.97
2022-08-28T06:38:58.532Z,17.95
2022-08-28T06:39:58.533Z,17.87
2022-08-28T06:40:58.553Z,17.85
2022-08-28T06:41:58.460Z,17.82
2022-08-28T06:42:58.441Z,17.81
2022-08-28T06:43:58.443Z,17.81
2022-08-28T06:44:58.423Z,17.81
2022-08-28T06:45:58.453Z,17.79
2022-08-28T06:46:58.383Z,17.76
2022-08-28T06:47:58.375Z,17.73
2022-08-28T06:48:58.378Z,17.64
2022-08-28T06:49:58.344Z,17.59
2022-08-28T06:50:58.334Z,17.59
2022-08-28T06:51:58.329Z,17.54
2022-08-28T06:52:58.306Z,17.51
2022-08-28T06:53:58.294Z,17.48
2022-08-28T06:54:58.296Z,17.46
2022-08-28T06:55:58.308Z,17.51
2022-08-28T06:56:58.243Z,17.54
2022-08-28T06:57:58.294Z,17.54
2022-08-28T06:58:58.223Z,17.54
2022-08-28T06:59:58.234Z,17.54
2022-08-28T07:01:02.758Z,17.66
2022-08-28T07:01:58.311Z,17.74
2022-08-28T07:02:58.235Z,17.82
2022-08-28T07:03:58.156Z,17.91
2022-08-28T07:04:58.138Z,17.92
2022-08-28T07:05:58.144Z,17.91
2022-08-28T07:06:58.106Z,17.91
2022-08-28T07:07:58.097Z,17.92
2022-08-28T07:08:58.146Z,17.81
2022-08-28T07:09:58.077Z,17.81
2022-08-28T07:10:58.067Z,17.81
2022-08-28T07:11:58.069Z,17.82
2022-08-28T07:12:58.037Z,17.70
2022-08-28T07:13:58.027Z,17.69
2022-08-28T07:14:58.024Z,17.76
2022-08-28T07:15:58.052Z,17.82
2022-08-28T07:16:57.997Z,17.78
2022-08-28T07:17:57.967Z,17.73
2022-08-28T07:18:57.957Z,17.70
2022-08-28T07:19:57.936Z,17.74
2022-08-28T07:20:57.917Z,17.81
2022-08-28T07:21:57.927Z,17.84
2022-08-28T07:22:59.707Z,17.82
2022-08-28T07:23:57.939Z,17.85
2022-08-28T07:24:57.869Z,17.97
2022-08-28T07:25:57.969Z,18.03
2022-08-28T07:26:57.856Z,18.06
2022-08-28T07:27:57.859Z,18.15
2022-08-28T07:29:10.242Z,18.28
2022-08-28T07:29:58.820Z,18.36
2022-08-28T07:30:57.869Z,18.43
2022-08-28T07:31:57.791Z,18.47
2022-08-28T07:32:57.770Z,18.46
2022-08-28T07:33:57.811Z,18.57
2022-08-28T07:34:57.731Z,18.80
2022-08-28T07:35:57.732Z,18.94
2022-08-28T07:36:57.711Z,18.97
2022-08-28T07:37:57.730Z,18.95
2022-08-28T07:38:57.701Z,18.91
2022-08-28T07:39:57.761Z,18.86
2022-08-28T07:40:57.660Z,18.74
2022-08-28T07:41:57.659Z,18.67
2022-08-28T07:42:57.641Z,18.62
2022-08-28T07:43:57.631Z,18.59
2022-08-28T07:44:57.630Z,18.57
2022-08-28T07:45:57.640Z,18.61
2022-08-28T07:46:57.590Z,18.65
2022-08-28T07:47:57.582Z,18.70
2022-08-28T07:48:57.593Z,18.70
2022-08-28T07:49:57.563Z,18.70
2022-08-28T07:50:57.551Z,18.70
2022-08-28T07:51:57.614Z,18.77
2022-08-28T07:52:57.513Z,18.79
2022-08-28T07:53:57.631Z,18.87
2022-08-28T07:54:57.531Z,18.86
2022-08-28T07:55:57.481Z,19.02
2022-08-28T07:56:57.473Z,19.10
2022-08-28T07:57:57.455Z,19.05
2022-08-28T07:58:57.463Z,19.10
2022-08-28T07:59:57.433Z,18.99
2022-08-28T08:00:57.425Z,18.95
2022-08-28T08:01:57.433Z,18.94
2022-08-28T08:02:57.386Z,18.92
2022-08-28T08:04:01.556Z,18.84
2022-08-28T08:04:57.372Z,18.74
2022-08-28T08:05:57.354Z,18.73
2022-08-28T08:06:58.319Z,18.73
2022-08-28T08:07:57.322Z,18.70
2022-08-28T08:08:57.313Z,18.73
2022-08-28T08:09:57.869Z,18.62
2022-08-28T08:10:57.375Z,18.61
2022-08-28T08:11:57.461Z,18.62
2022-08-28T08:12:57.265Z,18.57
2022-08-28T08:13:57.244Z,18.57
2022-08-28T08:14:57.226Z,18.70
2022-08-28T08:15:57.237Z,18.90
2022-08-28T08:16:57.225Z,19.06
2022-08-28T08:17:57.193Z,19.13
2022-08-28T08:18:57.200Z,19.21
2022-08-28T08:19:57.217Z,19.33
2022-08-28T08:20:57.156Z,19.25
2022-08-28T08:21:57.166Z,19.24
2022-08-28T08:22:57.128Z,19.11
2022-08-28T08:23:57.118Z,19.15
2022-08-28T08:24:57.109Z,19.13
2022-08-28T08:25:57.096Z,19.02
2022-08-28T08:27:00.114Z,18.94
2022-08-28T08:27:57.068Z,18.95
2022-08-28T08:28:57.061Z,18.95
2022-08-28T08:29:57.048Z,19.06
2022-08-28T08:30:57.073Z,19.13
2022-08-28T08:31:57.008Z,19.15
2022-08-28T08:32:56.995Z,18.95
2022-08-28T08:33:56.997Z,18.82
2022-08-28T08:34:56.968Z,18.74
2022-08-28T08:35:56.957Z,18.64
2022-08-28T08:36:56.957Z,18.55
2022-08-28T08:37:59.652Z,18.50
2022-08-28T08:39:00.035Z,18.52
2022-08-28T08:39:56.979Z,18.61
2022-08-28T08:40:56.899Z,18.67
2022-08-28T08:41:56.930Z,18.82
2022-08-28T08:42:56.872Z,18.87
2022-08-28T08:43:56.861Z,18.79
2022-08-28T08:44:56.849Z,18.84
2022-08-28T08:45:56.865Z,18.79
2022-08-28T08:46:57.848Z,18.91
2022-08-28T08:47:56.823Z,19.05
2022-08-28T08:48:56.793Z,19.01
2022-08-28T08:49:56.777Z,19.05
2022-08-28T08:50:56.770Z,19.20
2022-08-28T08:51:56.750Z,19.13
2022-08-28T08:52:56.741Z,18.94
2022-08-28T08:53:56.744Z,18.86
2022-08-28T08:54:59.441Z,18.86
2022-08-28T08:55:56.747Z,18.86
2022-08-28T08:56:56.712Z,18.87
2022-08-28T08:57:56.684Z,18.84
2022-08-28T08:58:56.673Z,18.83
2022-08-28T08:59:56.652Z,18.73
2022-08-28T09:00:56.643Z,18.64
2022-08-28T09:01:56.702Z,18.62
2022-08-28T09:02:56.657Z,18.77
2022-08-28T09:03:56.670Z,18.77
2022-08-28T09:04:56.901Z,18.70
2022-08-28T09:05:56.571Z,18.55
2022-08-28T09:06:56.622Z,18.50
2022-08-28T09:07:56.544Z,18.28
2022-08-28T09:08:56.563Z,18.34
2022-08-28T09:09:56.533Z,18.36
2022-08-28T09:10:56.532Z,18.43
2022-08-28T09:11:57.201Z,18.50
2022-08-28T09:12:56.521Z,18.49
2022-08-28T09:13:56.563Z,18.64
2022-08-28T09:14:56.453Z,18.62
2022-08-28T09:15:56.473Z,18.52
2022-08-28T09:16:56.462Z,18.47
2022-08-28T09:17:56.435Z,18.57
2022-08-28T09:18:56.404Z,18.65
2022-08-28T09:19:56.395Z,18.65
2022-08-28T09:20:56.375Z,18.54
2022-08-28T09:21:56.384Z,18.44
2022-08-28T09:22:56.356Z,18.49
2022-08-28T09:23:56.346Z,18.64
2022-08-28T09:24:56.336Z,18.86
2022-08-28T09:25:56.314Z,19.01
2022-08-28T09:26:56.304Z,19.02
2022-08-28T09:27:56.744Z,18.82
2022-08-28T09:28:56.315Z,18.59
2022-08-28T09:29:56.276Z,18.44
2022-08-28T09:30:56.257Z,18.39
2022-08-28T09:31:56.246Z,18.37
2022-08-28T09:32:56.232Z,18.29
2022-08-28T09:33:56.215Z,18.31
2022-08-28T09:34:56.267Z,18.36
2022-08-28T09:35:56.195Z,18.46
2022-08-28T09:36:56.175Z,18.39
2022-08-28T09:37:56.159Z,18.40
2022-08-28T09:38:56.138Z,18.31
2022-08-28T09:39:56.217Z,18.29
2022-08-28T09:40:56.167Z,18.37
2022-08-28T09:41:56.116Z,18.52
2022-08-28T09:42:56.106Z,18.50
2022-08-28T09:43:56.087Z,18.46
2022-08-28T09:44:56.067Z,18.52
2022-08-28T09:45:56.102Z,18.50
2022-08-28T09:46:56.048Z,18.47
2022-08-28T09:47:56.072Z,18.37
2022-08-28T09:48:56.017Z,18.34
2022-08-28T09:49:56.829Z,18.39
2022-08-28T09:50:56.030Z,18.50
2022-08-28T09:51:56.058Z,18.46
2022-08-28T09:52:55.990Z,18.62
2022-08-28T09:53:55.959Z,18.65
2022-08-28T09:54:55.940Z,18.65
2022-08-28T09:55:55.982Z,18.58
2022-08-28T09:56:55.920Z,18.55
2022-08-28T09:57:55.929Z,18.57
2022-08-28T09:58:55.910Z,18.55
2022-08-28T09:59:55.919Z,18.49
2022-08-28T10:00:55.877Z,18.47
2022-08-28T10:01:55.882Z,18.54
2022-08-28T10:02:55.900Z,18.61
2022-08-28T10:03:55.873Z,18.65
2022-08-28T10:04:55.820Z,18.67
2022-08-28T10:05:55.813Z,18.72
2022-08-28T10:06:55.790Z,18.80
2022-08-28T10:07:55.783Z,18.90
2022-08-28T10:08:55.761Z,18.64
2022-08-28T10:09:55.752Z,18.50
2022-08-28T10:10:55.762Z,18.54
2022-08-28T10:11:55.722Z,18.59
2022-08-28T10:12:55.722Z,18.57
2022-08-28T10:13:55.701Z,18.59
2022-08-28T10:14:55.681Z,18.59
2022-08-28T10:15:55.691Z,18.77
2022-08-28T10:16:55.662Z,18.82
2022-08-28T10:17:55.694Z,18.80
2022-08-28T10:18:55.635Z,18.86
2022-08-28T10:19:55.622Z,18.94
2022-08-28T10:20:55.607Z,18.83
2022-08-28T10:21:55.592Z,18.72
2022-08-28T10:22:55.600Z,18.70
2022-08-28T10:23:55.562Z,18.74
2022-08-28T10:24:55.560Z,18.67
2022-08-28T10:25:55.540Z,18.57
2022-08-28T10:26:55.532Z,18.54
2022-08-28T10:27:55.513Z,18.58
2022-08-28T10:28:55.554Z,18.70
2022-08-28T10:29:55.485Z,18.73
2022-08-28T10:30:55.522Z,18.79
2022-08-28T10:31:55.463Z,18.91
2022-08-28T10:32:55.455Z,18.94
2022-08-28T10:33:55.433Z,19.02
2022-08-28T10:34:55.444Z,19.11
2022-08-28T10:35:55.408Z,19.23
2022-08-28T10:36:55.396Z,19.21
2022-08-28T10:37:55.385Z,19.38
2022-08-28T10:38:55.386Z,19.48
2022-08-28T10:39:55.422Z,19.70
2022-08-28T10:40:55.364Z,19.60
2022-08-28T10:41:55.336Z,19.35
2022-08-28T10:42:55.324Z,19.33
2022-08-28T10:43:55.297Z,19.40
2022-08-28T10:44:55.305Z,19.63
2022-08-28T10:45:55.356Z,19.70
2022-08-28T10:46:55.268Z,19.83
2022-08-28T10:47:55.299Z,19.87
2022-08-28T10:48:55.257Z,19.84
2022-08-28T10:49:55.237Z,19.66
2022-08-28T10:50:55.218Z,19.50
2022-08-28T10:51:56.016Z,19.54
2022-08-28T10:52:55.199Z,19.60
2022-08-28T10:53:55.178Z,19.50
2022-08-28T10:54:55.169Z,19.47
2022-08-28T10:55:55.141Z,19.55
2022-08-28T10:56:56.102Z,19.50
2022-08-28T10:57:55.109Z,19.60
2022-08-28T10:58:55.118Z,19.57
2022-08-28T10:59:55.098Z,19.32
2022-08-28T11:00:55.130Z,19.46
2022-08-28T11:01:55.134Z,19.61
2022-08-28T11:02:55.183Z,19.66
2022-08-28T11:03:55.052Z,19.51
2022-08-28T11:04:58.331Z,19.38
2022-08-28T11:05:55.021Z,19.47
2022-08-28T11:06:55.011Z,19.70
2022-08-28T11:07:55.002Z,19.58
2022-08-28T11:08:54.991Z,19.60
2022-08-28T11:09:54.989Z,19.61
2022-08-28T11:10:54.967Z,19.46
2022-08-28T11:11:58.399Z,19.42
2022-08-28T11:12:55.952Z,19.40
2022-08-28T11:13:54.957Z,19.46
2022-08-28T11:14:54.900Z,19.50
2022-08-28T11:15:54.940Z,19.46
2022-08-28T11:16:54.964Z,19.47
2022-08-28T11:17:54.873Z,19.38
2022-08-28T11:18:54.912Z,19.35
2022-08-28T11:19:54.840Z,19.35
2022-08-28T11:20:54.853Z,19.32
2022-08-28T11:21:54.851Z,19.32
2022-08-28T11:22:54.799Z,19.39
2022-08-28T11:23:54.785Z,19.61
2022-08-28T11:24:59.148Z,19.86
2022-08-28T11:25:55.834Z,19.95
2022-08-28T11:26:54.763Z,19.88
2022-08-28T11:27:54.744Z,19.75
2022-08-28T11:28:54.735Z,19.70
2022-08-28T11:29:54.704Z,19.88
2022-08-28T11:30:54.783Z,19.97
2022-08-28T11:31:54.694Z,19.76
2022-08-28T11:32:54.713Z,19.78
2022-08-28T11:33:54.654Z,19.83
2022-08-28T11:35:01.923Z,19.76
2022-08-28T11:35:54.624Z,19.79
2022-08-28T11:36:54.612Z,19.91
2022-08-28T11:37:54.613Z,20.00
2022-08-28T11:38:54.594Z,19.86
2022-08-28T11:39:54.606Z,19.93
2022-08-28T11:40:54.720Z,20.09
2022-08-28T11:41:54.563Z,19.91
2022-08-28T11:42:54.555Z,20.24
2022-08-28T11:43:54.585Z,20.35
2022-08-28T11:44:54.516Z,20.25
2022-08-28T11:45:54.526Z,20.46
2022-08-28T11:46:54.505Z,20.53
2022-08-28T11:47:54.493Z,20.65
2022-08-28T11:48:54.464Z,20.51
2022-08-28T11:49:54.455Z,20.39
2022-08-28T11:50:54.450Z,20.30
2022-08-28T11:51:54.426Z,20.33
2022-08-28T11:52:54.426Z,20.25
2022-08-28T11:53:54.414Z,20.35
2022-08-28T11:54:54.395Z,20.06
2022-08-28T11:55:54.378Z,19.95
2022-08-28T11:56:54.370Z,19.94
2022-08-28T11:57:54.358Z,20.08
2022-08-28T11:58:54.389Z,20.27
2022-08-28T11:59:54.348Z,20.21
2022-08-28T12:00:54.321Z,20.21
2022-08-28T12:01:54.308Z,20.35
2022-08-28T12:02:54.368Z,20.41
2022-08-28T12:03:54.316Z,20.51
2022-08-28T12:04:54.258Z,20.53
2022-08-28T12:05:54.252Z,20.49
2022-08-28T12:06:54.287Z,20.33
2022-08-28T12:07:54.218Z,20.28
2022-08-28T12:08:54.207Z,20.25
2022-08-28T12:09:54.197Z,20.12
2022-08-28T12:10:54.189Z,20.05
2022-08-28T12:11:54.188Z,20.06
2022-08-28T12:12:54.160Z,20.02
2022-08-28T12:13:54.187Z,19.97
2022-08-28T12:14:54.140Z,19.95
2022-08-28T12:15:54.165Z,19.72
2022-08-28T12:16:54.121Z,19.66
2022-08-28T12:17:54.101Z,19.75
2022-08-28T12:18:54.092Z,19.84
2022-08-28T12:19:55.775Z,19.88
2022-08-28T12:20:54.061Z,19.97
2022-08-28T12:21:54.050Z,19.94
2022-08-28T12:22:54.030Z,19.80
2022-08-28T12:23:57.009Z,19.83
2022-08-28T12:24:54.012Z,19.87
2022-08-28T12:25:54.004Z,19.98
2022-08-28T12:26:54.002Z,20.05
2022-08-28T12:27:53.959Z,20.10
2022-08-28T12:28:53.965Z,19.91
2022-08-28T12:29:53.965Z,19.94
2022-08-28T12:30:53.985Z,19.97
2022-08-28T12:31:53.922Z,19.98
2022-08-28T12:32:53.903Z,19.88
2022-08-28T12:33:53.892Z,19.76
2022-08-28T12:34:53.873Z,19.61
2022-08-28T12:35:53.889Z,19.61
2022-08-28T12:36:53.865Z,19.58
2022-08-28T12:37:54.038Z,19.65
2022-08-28T12:38:53.856Z,19.46
2022-08-28T12:39:53.900Z,19.47
2022-08-28T12:40:53.866Z,19.47
2022-08-28T12:41:53.798Z,19.68
2022-08-28T12:42:55.370Z,19.79
2022-08-28T12:43:53.764Z,19.88
2022-08-28T12:44:53.773Z,19.79
2022-08-28T12:45:53.822Z,19.84
2022-08-28T12:46:53.723Z,19.88
2022-08-28T12:47:53.712Z,20.05
2022-08-28T12:48:53.695Z,20.06
2022-08-28T12:49:53.681Z,20.10
2022-08-28T12:50:53.685Z,20.18
2022-08-28T12:51:53.676Z,19.97